Terminal Aerodrome Forecast
Issued by NWS

Home | Current Version | Previous Version | Text Only | Print | Product List | Glossary On
Versions: 1 2 3 4 5 6 7 8 9 10 11 12 13 14 15 16
000
FTUS41 KBGM 221731
TAFRME
TAF
KRME 221731Z 2218/2318 22010G18KT P6SM BKN050
      TEMPO 2221/2223 VRB50KT 3SM +TSRAGS OVC025CB
     FM230000 25010KT P6SM BKN030
     FM230500 28008KT P6SM SCT150
     FM231400 28012KT P6SM BKN040=

USA.gov is the U.S. government's official web portal to all federal, state and local government web resources and services.